Time;durP1;ratioP1;P1;durP2;ratioP2;P2;SDS_P1;SDS_P2;PMS_P1;PMS_P2;Temp;Humidity;BMP_temperature;BMP_pressure;BME280_temperature;BME280_humidity;BME280_pressure;Samples;Min_cycle;Max_cycle;Signal;HPM_P1;HPM_P2
2021/09/18 00:00:38;;;;;;;;;18.50;15.25;;;;;19.94;58.85;101168.56;4898988;29;45581;-58
2021/09/18 00:03:03;;;;;;;;;18.25;17.50;;;;;19.92;58.55;101167.88;4898595;29;45673;-58
2021/09/18 00:05:29;;;;;;;;;20.75;20.00;;;;;19.91;59.02;101168.88;4900007;29;45394;-58
2021/09/18 00:07:54;;;;;;;;;20.50;20.50;;;;;19.89;58.70;101167.28;4897284;29;45451;-58
2021/09/18 00:10:19;;;;;;;;;22.75;19.00;;;;;19.87;58.92;101175.47;4898838;29;45377;-58
2021/09/18 00:12:45;;;;;;;;;30.50;24.50;;;;;19.85;58.95;101166.75;4898074;29;45562;-58
2021/09/18 00:15:11;;;;;;;;;21.50;19.50;;;;;19.83;59.16;101168.72;4897993;29;45919;-58
2021/09/18 00:17:36;;;;;;;;;22.25;19.00;;;;;19.77;59.35;101166.59;4896659;29;45263;-58
2021/09/18 00:20:03;;;;;;;;;20.00;16.25;;;;;19.75;59.26;101169.44;4899025;29;45278;-61
2021/09/18 00:22:29;;;;;;;;;18.25;16.75;;;;;19.70;59.42;101170.81;4897212;29;46474;-58
2021/09/18 00:24:55;;;;;;;;;19.00;17.00;;;;;19.68;59.39;101170.13;4897718;29;46061;-59
2021/09/18 00:27:21;;;;;;;;;19.25;16.00;;;;;19.62;59.15;101160.81;4897089;29;45512;-58
2021/09/18 00:29:46;;;;;;;;;20.50;17.25;;;;;19.62;59.40;101166.16;4899904;29;45484;-60
2021/09/18 00:32:12;;;;;;;;;19.00;16.50;;;;;19.63;59.51;101172.34;4899094;29;45521;-57
2021/09/18 00:34:37;;;;;;;;;19.00;17.00;;;;;19.60;59.55;101169.97;4898697;29;46183;-57
2021/09/18 00:37:03;;;;;;;;;16.75;16.75;;;;;19.59;59.69;101163.78;4898509;29;45431;-57
2021/09/18 00:39:28;;;;;;;;;15.25;14.00;;;;;19.58;59.54;101166.56;4899993;29;45453;-58
2021/09/18 00:41:54;;;;;;;;;15.50;14.75;;;;;19.58;59.98;101167.41;4897312;29;45328;-58
2021/09/18 00:44:20;;;;;;;;;14.75;14.75;;;;;19.56;59.79;101161.34;4898636;29;45928;-58
2021/09/18 00:46:52;;;;;;;;;14.50;14.50;;;;;19.55;59.57;101156.13;4897868;29;45364;-58
2021/09/18 00:49:19;;;;;;;;;14.75;12.75;;;;;19.54;60.13;101160.63;4897529;29;45312;-58
2021/09/18 00:51:45;;;;;;;;;23.00;17.75;;;;;19.51;59.80;101151.09;4896675;29;45286;-58
2021/09/18 00:54:13;;;;;;;;;15.25;14.25;;;;;19.51;59.50;101150.22;4898968;29;45388;-58
2021/09/18 00:56:40;;;;;;;;;17.50;16.00;;;;;19.49;60.13;101153.03;4895402;29;45480;-58
2021/09/18 00:59:05;;;;;;;;;14.00;10.25;;;;;19.45;60.46;101146.28;4899098;29;45454;-58
2021/09/18 01:01:31;;;;;;;;;14.50;14.50;;;;;19.41;60.24;101152.03;4897434;29;45603;-58
2021/09/18 01:03:59;;;;;;;;;14.75;10.75;;;;;19.35;60.19;101147.22;4898919;29;45521;-58
2021/09/18 01:06:25;;;;;;;;;17.25;16.00;;;;;19.27;60.40;101158.59;4896142;29;45480;-58
2021/09/18 01:08:56;;;;;;;;;15.25;15.25;;;;;19.21;60.55;101145.81;4899248;29;45400;-58
2021/09/18 01:11:23;;;;;;;;;17.50;16.50;;;;;19.18;60.53;101146.06;4898757;29;45292;-58
2021/09/18 01:13:49;;;;;;;;;14.00;14.00;;;;;19.16;61.27;101148.03;4896912;29;45395;-58
2021/09/18 01:16:14;;;;;;;;;14.00;13.25;;;;;19.10;61.06;101145.91;4896901;29;45162;-58
2021/09/18 01:18:40;;;;;;;;;13.00;11.50;;;;;19.06;61.35;101145.34;4897446;29;45229;-58
2021/09/18 01:21:09;;;;;;;;;16.25;16.25;;;;;19.01;61.23;101150.25;4897334;29;45577;-58
2021/09/18 01:23:35;;;;;;;;;13.25;13.25;;;;;18.98;60.86;101147.84;4880117;29;45742;-58
2021/09/18 01:26:00;;;;;;;;;15.25;14.75;;;;;18.97;61.19;101146.16;4897214;29;46508;-58
2021/09/18 01:28:26;;;;;;;;;15.00;13.75;;;;;18.99;61.66;101140.69;4897989;29;45549;-58
2021/09/18 01:30:52;;;;;;;;;15.75;14.25;;;;;18.97;61.86;101143.50;4898340;29;45505;-58
2021/09/18 01:33:18;;;;;;;;;17.25;17.00;;;;;18.94;61.32;101141.91;4898224;29;45513;-57
2021/09/18 01:35:44;;;;;;;;;16.75;15.25;;;;;18.92;61.67;101140.38;4896704;29;45422;-58
2021/09/18 01:38:10;;;;;;;;;15.25;13.50;;;;;18.91;61.66;101133.34;4896386;29;45398;-58
2021/09/18 01:40:39;;;;;;;;;16.00;16.00;;;;;18.90;61.50;101137.84;4880001;29;45476;-58
2021/09/18 01:43:05;;;;;;;;;17.50;15.25;;;;;18.91;61.88;101134.19;4899057;29;45768;-58
2021/09/18 01:45:32;;;;;;;;;13.75;13.50;;;;;18.89;61.89;101143.31;4896742;29;45345;-58
2021/09/18 01:48:12;;;;;;;;;16.75;13.50;;;;;18.87;61.74;101145.25;4896696;29;45377;-58
2021/09/18 01:50:51;;;;;;;;;13.25;12.75;;;;;18.86;61.79;101135.56;4897400;29;45376;-58
2021/09/18 01:53:20;;;;;;;;;14.00;12.75;;;;;18.90;61.54;101142.34;4897021;29;46163;-58
2021/09/18 01:55:47;;;;;;;;;16.50;15.00;;;;;18.93;61.44;101142.06;4897651;29;45529;-57
2021/09/18 01:58:13;;;;;;;;;16.00;14.75;;;;;18.94;61.26;101141.06;4896382;29;45370;-58
2021/09/18 02:00:44;;;;;;;;;14.75;14.00;;;;;18.96;61.61;101145.31;4898723;29;45373;-58
2021/09/18 02:03:10;;;;;;;;;16.50;16.00;;;;;18.99;61.23;101140.69;4895734;28;45419;-58
2021/09/18 02:05:35;;;;;;;;;15.00;12.75;;;;;19.01;61.41;101141.38;4898176;29;45247;-58
2021/09/18 02:08:01;;;;;;;;;12.25;12.25;;;;;19.04;61.83;101144.66;4897064;29;45250;-58
2021/09/18 02:10:29;;;;;;;;;14.25;13.75;;;;;19.06;61.24;101144.50;4896365;29;45558;-58
2021/09/18 02:12:55;;;;;;;;;19.00;13.50;;;;;19.06;61.21;101149.84;4896134;29;45482;-58
2021/09/18 02:15:23;;;;;;;;;17.50;15.25;;;;;19.05;61.61;101141.00;4896430;29;45364;-57
2021/09/18 02:17:49;;;;;;;;;15.00;14.00;;;;;19.05;61.61;101146.34;4896584;29;45384;-58
2021/09/18 02:20:19;;;;;;;;;17.00;14.25;;;;;19.04;61.13;101144.66;4896127;29;45600;-58
2021/09/18 02:22:44;;;;;;;;;17.00;15.00;;;;;19.06;61.50;101141.84;4896007;29;46228;-58
2021/09/18 02:25:11;;;;;;;;;18.00;16.00;;;;;19.05;61.53;101140.16;4896876;29;45455;-58
2021/09/18 02:27:37;;;;;;;;;19.50;15.50;;;;;19.04;61.46;101141.09;4896540;29;45476;-58
2021/09/18 02:30:04;;;;;;;;;15.75;14.25;;;;;19.05;61.75;101140.16;4898878;29;45534;-58
2021/09/18 02:32:30;;;;;;;;;16.75;14.00;;;;;19.04;61.55;101138.44;4893532;29;45823;-58
2021/09/18 02:34:55;;;;;;;;;16.25;15.00;;;;;19.01;61.41;101126.22;4895943;29;45250;-57
2021/09/18 02:37:21;;;;;;;;;15.25;14.00;;;;;19.02;61.71;101130.56;4896551;29;45439;-58
2021/09/18 02:39:47;;;;;;;;;16.25;15.50;;;;;19.02;61.62;101127.91;4896701;29;45166;-58
2021/09/18 02:42:13;;;;;;;;;15.00;13.75;;;;;19.02;61.38;101127.91;4895138;29;45185;-58
2021/09/18 02:44:38;;;;;;;;;18.25;15.25;;;;;19.02;61.56;101122.56;4897917;29;45471;-58
2021/09/18 02:47:04;;;;;;;;;15.50;13.25;;;;;19.00;61.07;101121.00;4896929;29;45329;-58
2021/09/18 02:49:29;;;;;;;;;16.00;16.00;;;;;18.98;61.00;101123.81;4896413;29;45318;-58
2021/09/18 02:51:55;;;;;;;;;20.50;16.25;;;;;18.96;61.32;101117.78;4894958;29;45588;-57
2021/09/18 02:54:20;;;;;;;;;14.50;13.75;;;;;18.93;61.47;101118.88;4897434;29;45321;-57
2021/09/18 02:56:46;;;;;;;;;14.00;12.50;;;;;18.92;61.56;101114.53;4897284;29;45430;-57
2021/09/18 02:59:12;;;;;;;;;18.25;17.00;;;;;18.89;61.01;101112.13;4896201;29;45392;-57
2021/09/18 03:01:37;;;;;;;;;17.50;15.75;;;;;18.87;61.49;101114.06;4895554;29;45281;-58
2021/09/18 03:04:03;;;;;;;;;15.25;15.00;;;;;18.82;61.29;101119.00;4897053;29;45526;-58
2021/09/18 03:06:29;;;;;;;;;16.75;14.25;;;;;18.76;62.17;101127.53;4896520;29;45443;-58
2021/09/18 03:08:55;;;;;;;;;12.75;12.25;;;;;18.75;61.87;101125.00;4895538;29;45376;-58
2021/09/18 03:11:22;;;;;;;;;17.25;14.50;;;;;18.75;61.76;101128.50;4895832;29;45458;-58
2021/09/18 03:13:48;;;;;;;;;16.25;14.00;;;;;18.75;61.78;101130.34;4895488;29;45444;-58
2021/09/18 03:16:13;;;;;;;;;24.50;15.50;;;;;18.76;61.32;101127.53;4895641;29;45427;-57
2021/09/18 03:18:39;;;;;;;;;13.50;13.00;;;;;18.74;61.35;101126.81;4894537;29;45519;-57
2021/09/18 03:21:04;;;;;;;;;17.50;13.75;;;;;18.73;61.68;101124.28;4896280;29;45743;-57
2021/09/18 03:23:30;;;;;;;;;20.25;18.00;;;;;18.73;61.48;101121.63;4895720;29;45437;-58
2021/09/18 03:25:55;;;;;;;;;13.75;13.00;;;;;18.72;61.71;101123.41;4895786;29;45444;-57
2021/09/18 03:28:21;;;;;;;;;16.00;13.25;;;;;18.71;61.53;101119.06;4895290;29;45783;-58
2021/09/18 03:30:46;;;;;;;;;16.75;15.00;;;;;18.71;61.45;101115.56;4894850;29;46612;-57
2021/09/18 03:33:12;;;;;;;;;13.75;13.25;;;;;18.69;61.58;101110.34;4894043;29;45643;-57
2021/09/18 03:35:39;;;;;;;;;15.50;13.50;;;;;18.68;61.71;101108.69;4880271;29;45444;-58
2021/09/18 03:38:04;;;;;;;;;16.00;14.75;;;;;18.64;61.27;101112.53;4895268;29;45330;-57
2021/09/18 03:40:30;;;;;;;;;17.75;15.50;;;;;18.61;61.52;101100.31;4895044;29;46184;-57
2021/09/18 03:42:55;;;;;;;;;14.75;14.75;;;;;18.59;61.77;101101.44;4896997;29;45365;-58
2021/09/18 03:45:21;;;;;;;;;23.50;15.00;;;;;18.60;61.52;101103.13;4895687;29;45222;-58
2021/09/18 03:47:46;;;;;;;;;15.25;15.25;;;;;18.60;61.88;101106.63;4895395;29;45607;-58
2021/09/18 03:50:12;;;;;;;;;14.25;12.50;;;;;18.59;61.82;101102.28;4894861;29;45468;-58
2021/09/18 03:52:38;;;;;;;;;13.00;13.00;;;;;18.58;61.56;101108.59;4896864;29;45170;-58
2021/09/18 03:55:05;;;;;;;;;15.50;12.50;;;;;18.57;61.49;101104.25;4896085;29;45265;-57
2021/09/18 03:57:31;;;;;;;;;19.00;14.75;;;;;18.56;61.85;101109.69;4895049;29;45649;-57
2021/09/18 03:59:57;;;;;;;;;15.50;15.00;;;;;18.52;61.88;101106.47;4894782;29;46177;-58
2021/09/18 04:02:23;;;;;;;;;15.75;15.00;;;;;18.49;62.16;101108.56;4896161;29;45364;-57
2021/09/18 04:04:48;;;;;;;;;15.75;15.75;;;;;18.46;62.26;101111.47;4894432;29;45366;-58
2021/09/18 04:07:14;;;;;;;;;17.25;17.00;;;;;18.47;62.49;101115.84;4897115;29;45341;-58
2021/09/18 04:09:40;;;;;;;;;17.00;13.25;;;;;18.46;61.96;101116.81;4894638;29;45918;-57
2021/09/18 04:12:05;;;;;;;;;15.50;14.50;;;;;18.48;61.93;101115.69;4894702;29;45549;-57
2021/09/18 04:14:31;;;;;;;;;15.50;14.50;;;;;18.50;62.17;101120.91;4895024;29;45417;-57
2021/09/18 04:16:57;;;;;;;;;11.25;11.00;;;;;18.45;62.40;101129.31;4894769;29;45593;-58
2021/09/18 04:19:22;;;;;;;;;18.00;16.00;;;;;18.40;62.26;101126.19;4894573;29;45871;-57
2021/09/18 04:21:48;;;;;;;;;18.25;14.25;;;;;18.40;62.52;101127.03;4895381;29;45486;-58
2021/09/18 04:24:13;;;;;;;;;15.25;13.50;;;;;18.42;62.45;101129.59;4894189;29;45510;-57
2021/09/18 04:26:39;;;;;;;;;14.50;14.00;;;;;18.45;62.56;101125.81;4897193;29;45608;-57
2021/09/18 04:29:04;;;;;;;;;16.50;16.00;;;;;18.46;62.21;101124.81;4895299;29;45469;-57
2021/09/18 04:31:30;;;;;;;;;17.25;14.25;;;;;18.45;62.10;101121.31;4897239;29;45509;-58
2021/09/18 04:33:56;;;;;;;;;17.75;17.00;;;;;18.44;62.29;101124.13;4896518;28;45337;-57
2021/09/18 04:36:21;;;;;;;;;16.00;15.00;;;;;18.45;61.97;101123.97;4899442;29;45532;-58
2021/09/18 04:38:47;;;;;;;;;15.50;13.75;;;;;18.44;62.48;101119.63;4897205;29;45465;-57
2021/09/18 04:41:13;;;;;;;;;18.50;15.25;;;;;18.46;62.39;101117.66;4882386;29;45368;-57
2021/09/18 04:43:39;;;;;;;;;15.00;14.50;;;;;18.46;62.55;101122.16;4897643;29;45372;-58
2021/09/18 04:46:05;;;;;;;;;16.00;14.25;;;;;18.46;62.10;101125.66;4897807;29;45417;-58
2021/09/18 04:48:30;;;;;;;;;16.50;14.25;;;;;18.47;62.51;101132.69;4897573;29;45309;-58
2021/09/18 04:50:56;;;;;;;;;12.75;12.75;;;;;18.44;62.50;101124.97;4899829;29;45475;-58
2021/09/18 04:53:22;;;;;;;;;19.50;16.00;;;;;18.46;62.01;101128.31;4897278;29;45368;-58
2021/09/18 04:55:47;;;;;;;;;16.50;14.00;;;;;18.46;61.98;101133.66;4898930;29;45251;-58
2021/09/18 04:58:13;;;;;;;;;17.50;16.00;;;;;18.47;62.24;101129.16;4897894;29;45177;-58
2021/09/18 05:00:39;;;;;;;;;15.25;15.00;;;;;18.47;62.14;101122.00;4897496;29;45802;-58
2021/09/18 05:03:04;;;;;;;;;15.75;13.75;;;;;18.47;62.23;101131.84;4899224;28;45509;-58
2021/09/18 05:05:30;;;;;;;;;15.50;14.00;;;;;18.47;62.06;101129.16;4881243;29;45288;-58
2021/09/18 05:07:56;;;;;;;;;15.00;14.50;;;;;18.43;62.40;101131.28;4897211;29;45422;-58
2021/09/18 05:10:21;;;;;;;;;15.75;14.50;;;;;18.41;62.05;101134.06;4898949;29;45336;-58
2021/09/18 05:12:47;;;;;;;;;16.75;15.00;;;;;18.37;62.07;101135.31;4897169;29;45313;-58
2021/09/18 05:15:12;;;;;;;;;14.50;12.00;;;;;18.36;62.28;101135.44;4898955;29;45387;-58
2021/09/18 05:17:38;;;;;;;;;11.50;10.50;;;;;18.35;62.32;101134.59;4896801;29;45349;-58
2021/09/18 05:20:05;;;;;;;;;14.00;13.25;;;;;18.35;61.98;101139.09;4896827;29;45404;-57
2021/09/18 05:22:30;;;;;;;;;16.75;16.25;;;;;18.34;62.04;101135.56;4879668;29;45242;-57
2021/09/18 05:24:56;;;;;;;;;18.00;12.75;;;;;18.32;62.32;101139.34;4897175;29;45316;-58
2021/09/18 05:27:21;;;;;;;;;18.00;15.00;;;;;18.31;62.36;101138.50;4896380;29;46736;-58
2021/09/18 05:29:47;;;;;;;;;15.50;13.00;;;;;18.30;62.07;101147.47;4897962;29;45452;-58
2021/09/18 05:32:13;;;;;;;;;19.00;16.50;;;;;18.31;62.26;101145.66;4897704;29;45420;-59
2021/09/18 05:34:39;;;;;;;;;17.50;15.50;;;;;18.31;62.31;101148.31;4899245;29;45556;-58
2021/09/18 05:37:04;;;;;;;;;16.25;15.75;;;;;18.30;62.35;101149.28;4896437;29;46051;-58
2021/09/18 05:39:30;;;;;;;;;14.75;14.75;;;;;18.27;62.54;101150.41;4898436;29;45471;-58
2021/09/18 05:41:55;;;;;;;;;18.00;15.75;;;;;18.26;62.16;101147.88;4897676;29;45415;-58
2021/09/18 05:44:21;;;;;;;;;14.25;14.25;;;;;18.26;62.07;101147.88;4897106;29;45416;-57
2021/09/18 05:46:46;;;;;;;;;18.00;15.00;;;;;18.25;62.54;101148.88;4897173;29;45452;-58
2021/09/18 05:49:12;;;;;;;;;13.25;12.75;;;;;18.23;62.17;101154.28;4899783;29;45409;-58
2021/09/18 05:51:37;;;;;;;;;17.00;14.75;;;;;18.21;62.12;101147.41;4895327;29;45835;-58
2021/09/18 05:54:03;;;;;;;;;15.25;13.50;;;;;18.20;62.55;101157.22;4905202;29;45396;-58
2021/09/18 05:56:28;;;;;;;;;18.75;13.25;;;;;18.22;62.62;101151.78;4905044;29;45410;-58
2021/09/18 05:58:54;;;;;;;;;19.00;13.00;;;;;18.23;62.17;101148.97;4904795;29;45251;-58
2021/09/18 06:01:19;;;;;;;;;16.00;13.50;;;;;18.24;62.69;101153.31;4905158;29;45491;-58
2021/09/18 06:03:45;;;;;;;;;14.25;14.25;;;;;18.24;62.21;101166.66;4904578;29;45623;-57
2021/09/18 06:06:10;;;;;;;;;13.50;13.25;;;;;18.24;62.14;101160.47;4886871;29;45514;-56
2021/09/18 06:08:36;;;;;;;;;18.25;14.00;;;;;18.25;62.30;101156.84;4893185;29;45230;-56
2021/09/18 06:11:02;;;;;;;;;13.50;13.25;;;;;18.25;62.08;101157.69;4885897;29;45317;-56
2021/09/18 06:13:28;;;;;;;;;16.00;14.50;;;;;18.23;61.89;101158.78;4885871;29;45378;-57
2021/09/18 06:15:53;;;;;;;;;19.00;15.50;;;;;18.20;62.38;101162.56;4885794;29;46172;-56
2021/09/18 06:18:19;;;;;;;;;18.75;17.00;;;;;18.19;62.38;101162.72;4886346;29;45352;-58
2021/09/18 06:20:44;;;;;;;;;13.00;12.50;;;;;18.21;62.11;101168.75;4886098;29;45254;-57
2021/09/18 06:23:10;;;;;;;;;13.50;12.00;;;;;18.23;62.37;101172.13;4885895;29;45535;-57
2021/09/18 06:25:35;;;;;;;;;10.00;10.00;;;;;18.25;62.59;101167.53;4885877;29;45501;-56
2021/09/18 06:28:01;;;;;;;;;14.00;14.00;;;;;18.26;61.92;101170.06;4886175;29;45344;-57
2021/09/18 06:30:27;;;;;;;;;14.50;14.00;;;;;18.27;62.50;101173.56;4886012;29;45313;-57
2021/09/18 06:32:52;;;;;;;;;18.00;13.50;;;;;18.28;62.40;101165.44;4895378;29;45572;-56
2021/09/18 06:35:18;;;;;;;;;17.75;13.50;;;;;18.31;62.03;101158.97;4887235;29;46058;-58
2021/09/18 06:37:47;;;;;;;;;13.25;12.25;;;;;18.34;62.16;101169.41;4904988;29;45147;-57
2021/09/18 06:40:15;;;;;;;;;13.50;12.75;;;;;18.37;62.47;101166.47;4904832;29;45432;-57
2021/09/18 06:42:41;;;;;;;;;17.50;14.50;;;;;18.40;62.39;101163.53;4891786;28;45409;-57
2021/09/18 06:45:08;;;;;;;;;15.00;13.25;;;;;18.44;62.34;101167.63;4908086;28;45400;-57
2021/09/18 06:47:33;;;;;;;;;12.50;12.50;;;;;18.47;62.07;101159.34;4902476;29;45404;-58
2021/09/18 06:49:59;;;;;;;;;20.00;14.50;;;;;18.50;62.20;101160.94;4900937;29;45250;-56
2021/09/18 06:52:25;;;;;;;;;17.00;12.50;;;;;18.51;62.13;101158.13;4904008;29;45287;-56
2021/09/18 06:54:50;;;;;;;;;18.00;18.00;;;;;18.52;61.90;101164.31;4903367;29;46048;-57
2021/09/18 06:57:16;;;;;;;;;18.75;15.75;;;;;18.53;62.02;101164.19;4903223;29;45296;-57
2021/09/18 06:59:41;;;;;;;;;16.00;12.75;;;;;18.56;61.91;101165.72;4904275;29;45418;-56
2021/09/18 07:02:08;;;;;;;;;15.75;12.50;;;;;18.59;61.92;101165.47;4904128;28;45448;-57
2021/09/18 07:04:35;;;;;;;;;16.25;13.00;;;;;18.59;61.76;101166.31;4903802;29;45447;-57
2021/09/18 07:07:01;;;;;;;;;15.50;15.25;;;;;18.60;61.38;101164.50;4903505;29;45395;-57
2021/09/18 07:09:27;;;;;;;;;14.75;12.25;;;;;18.62;61.76;101162.53;4903511;29;45336;-58
2021/09/18 07:11:52;;;;;;;;;15.75;13.50;;;;;18.64;61.73;101169.44;4904366;29;45508;-57
2021/09/18 07:14:17;;;;;;;;;16.00;12.25;;;;;18.68;61.45;101170.06;4900405;29;46277;-56
2021/09/18 07:16:43;;;;;;;;;13.25;13.00;;;;;18.67;61.59;101169.22;4896098;28;45402;-56
2021/09/18 07:19:08;;;;;;;;;16.50;15.00;;;;;18.69;61.22;101167.25;4897721;29;45353;-57
2021/09/18 07:21:34;;;;;;;;;15.00;14.75;;;;;18.73;61.22;101165.16;4898463;29;45454;-57
2021/09/18 07:24:01;;;;;;;;;16.00;14.00;;;;;18.76;61.03;101169.38;4895600;29;45290;-59
2021/09/18 07:26:26;;;;;;;;;16.25;14.75;;;;;18.78;61.58;101180.75;4895187;29;45447;-56
2021/09/18 07:28:52;;;;;;;;;15.75;14.50;;;;;18.82;60.78;101185.72;4880806;29;45356;-55
2021/09/18 07:31:17;;;;;;;;;13.75;13.75;;;;;18.90;61.21;101177.88;4895838;29;45519;-55
2021/09/18 07:33:42;;;;;;;;;16.00;14.25;;;;;18.98;60.89;101173.72;4895983;29;46026;-55
2021/09/18 07:36:08;;;;;;;;;14.50;14.50;;;;;19.04;60.42;101171.34;4895327;29;45432;-56
2021/09/18 07:38:34;;;;;;;;;18.50;15.00;;;;;19.11;60.89;101172.47;4893720;29;45473;-59
2021/09/18 07:40:59;;;;;;;;;17.00;13.25;;;;;19.19;60.34;101169.13;4894583;29;45416;-57
2021/09/18 07:43:25;;;;;;;;;17.25;14.75;;;;;19.29;60.21;101171.84;4893497;29;45914;-56
2021/09/18 07:45:50;;;;;;;;;14.25;14.25;;;;;19.36;59.78;101171.16;4896985;29;45431;-58
2021/09/18 07:48:16;;;;;;;;;15.50;14.75;;;;;19.47;59.89;101175.53;4895530;29;45612;-58
2021/09/18 07:50:42;;;;;;;;;14.00;14.00;;;;;19.57;59.72;101170.22;4895072;29;45357;-57
2021/09/18 07:53:07;;;;;;;;;14.50;14.50;;;;;19.66;59.20;101178.25;4893732;29;45998;-62
2021/09/18 07:55:34;;;;;;;;;14.50;11.25;;;;;19.74;59.49;101181.06;4896529;29;45315;-60
2021/09/18 07:58:01;;;;;;;;;14.25;13.00;;;;;19.83;58.95;101192.78;4893369;29;45418;-58
2021/09/18 08:00:26;;;;;;;;;15.75;14.25;;;;;19.91;58.50;101181.41;4896595;29;45293;-55
2021/09/18 08:02:52;;;;;;;;;14.25;11.75;;;;;20.00;58.11;101181.38;4895037;29;45386;-58
2021/09/18 08:05:19;;;;;;;;;12.25;12.25;;;;;20.09;57.62;101187.72;4897973;29;45375;-56
2021/09/18 08:07:44;;;;;;;;;11.50;10.75;;;;;20.17;57.41;101187.84;4898271;29;45527;-54
2021/09/18 08:10:13;;;;;;;;;12.00;10.00;;;;;20.23;57.03;101187.28;4899953;29;45672;-54
2021/09/18 08:12:40;;;;;;;;;9.50;8.25;;;;;20.28;56.74;101184.16;4895756;29;45378;-55
2021/09/18 08:15:06;;;;;;;;;9.75;9.75;;;;;20.28;56.46;101190.34;4900094;29;45251;-53
2021/09/18 08:17:32;;;;;;;;;12.00;11.50;;;;;20.28;56.81;101192.19;4899231;29;45479;-55
2021/09/18 08:19:58;;;;;;;;;11.50;11.25;;;;;20.29;56.55;101184.00;4900667;29;45573;-53
2021/09/18 08:22:23;;;;;;;;;12.75;10.75;;;;;20.33;56.48;101189.94;4880170;29;47749;-57
2021/09/18 08:24:48;;;;;;;;;9.75;9.50;;;;;20.41;56.49;101198.09;4897732;29;45539;-54
2021/09/18 08:27:14;;;;;;;;;10.75;9.75;;;;;20.48;56.32;101193.91;4897255;29;45375;-58
2021/09/18 08:29:39;;;;;;;;;14.75;9.00;;;;;20.53;56.36;101199.66;4900348;29;45466;-60
2021/09/18 08:32:05;;;;;;;;;10.50;10.00;;;;;20.58;55.37;101186.69;4895033;29;45503;-60
2021/09/18 08:34:31;;;;;;;;;13.75;11.00;;;;;20.59;55.75;101190.19;4896518;29;45468;-58
2021/09/18 08:36:57;;;;;;;;;10.75;10.50;;;;;20.66;55.54;101202.03;4894532;29;45307;-58
2021/09/18 08:39:22;;;;;;;;;10.00;10.00;;;;;20.71;55.09;101197.09;4900174;29;45457;-59
2021/09/18 08:41:48;;;;;;;;;12.75;11.00;;;;;20.76;55.04;101194.78;4895962;29;45751;-58
2021/09/18 08:44:16;;;;;;;;;11.00;10.75;;;;;20.76;54.54;101193.94;4897231;28;45329;-60
2021/09/18 08:46:42;;;;;;;;;12.50;9.00;;;;;20.78;54.25;101190.16;4897653;29;45302;-59
2021/09/18 08:49:10;;;;;;;;;12.00;11.75;;;;;20.84;54.77;101196.75;4898662;29;45250;-59
2021/09/18 08:51:36;;;;;;;;;13.75;12.75;;;;;20.91;54.83;101187.97;4895561;29;45452;-59
2021/09/18 08:54:04;;;;;;;;;11.50;11.00;;;;;20.96;54.06;101186.72;4898113;29;45447;-59
2021/09/18 08:56:31;;;;;;;;;11.50;10.25;;;;;20.98;54.26;101185.56;4896715;29;45181;-59
2021/09/18 08:58:57;;;;;;;;;10.50;10.00;;;;;21.02;54.43;101183.44;4900187;29;46787;-59
2021/09/18 09:01:23;;;;;;;;;10.25;9.75;;;;;21.09;54.00;101182.72;4895258;29;46279;-60
2021/09/18 09:03:58;;;;;;;;;16.25;13.25;;;;;21.15;54.18;101184.78;4898942;29;45466;-60
2021/09/18 09:06:25;;;;;;;;;10.50;10.50;;;;;21.21;54.36;101186.03;4896185;29;45424;-59
2021/09/18 09:08:58;;;;;;;;;12.75;12.75;;;;;21.26;53.78;101189.09;4897699;29;45956;-59
2021/09/18 09:11:27;;;;;;;;;8.75;8.75;;;;;21.31;53.60;101188.66;4896747;29;46237;-59
2021/09/18 09:13:55;;;;;;;;;12.00;12.00;;;;;21.34;53.03;101186.56;4893955;28;45384;-59
2021/09/18 09:16:22;;;;;;;;;15.25;11.75;;;;;21.32;53.25;101188.53;4879390;29;45445;-60
2021/09/18 09:18:47;;;;;;;;;11.75;10.50;;;;;21.34;53.45;101183.88;4897256;29;45439;-59
2021/09/18 09:21:17;;;;;;;;;15.25;14.25;;;;;21.41;53.36;101184.13;4897389;29;45380;-59
2021/09/18 09:23:44;;;;;;;;;11.00;11.00;;;;;21.48;53.21;101187.03;4897086;29;45583;-60
2021/09/18 09:26:13;;;;;;;;;13.00;11.50;;;;;21.56;53.13;101181.75;4897679;29;45455;-59
2021/09/18 09:28:40;;;;;;;;;11.75;11.75;;;;;21.61;52.95;101179.47;4896171;29;45418;-58
2021/09/18 09:31:15;;;;;;;;;14.25;13.25;;;;;21.63;52.86;101175.63;4896279;29;45383;-59
2021/09/18 09:33:58;;;;;;;;;13.00;12.00;;;;;21.65;52.95;101172.81;4892374;29;45456;-59
2021/09/18 09:36:23;;;;;;;;;12.50;11.25;;;;;21.68;52.92;101175.19;4892972;29;45455;-59
2021/09/18 09:38:54;;;;;;;;;12.25;11.25;;;;;21.71;52.68;101167.66;4897090;29;45324;-59
2021/09/18 09:41:33;;;;;;;;;12.25;11.00;;;;;21.75;52.94;101176.25;4896293;29;45438;-59
2021/09/18 09:44:08;;;;;;;;;14.75;11.50;;;;;21.80;52.49;101173.09;4891356;29;45369;-59
2021/09/18 09:46:34;;;;;;;;;13.75;12.25;;;;;21.84;52.72;101166.47;4896721;29;45391;-58
2021/09/18 09:49:09;;;;;;;;;17.25;13.25;;;;;21.90;52.86;101166.69;4898884;28;45432;-59
2021/09/18 09:51:35;;;;;;;;;12.75;12.75;;;;;21.93;52.75;101166.38;4896161;29;45458;-59
2021/09/18 09:54:24;;;;;;;;;13.50;12.75;;;;;21.99;52.53;101170.28;4897499;29;46916;-59
2021/09/18 09:57:11;;;;;;;;;10.50;9.75;;;;;22.01;52.34;101165.59;4894817;29;45416;-59
2021/09/18 09:59:38;;;;;;;;;11.25;10.25;;;;;22.02;52.25;101162.75;4895623;29;45187;-59
2021/09/18 10:02:07;;;;;;;;;10.25;10.25;;;;;22.10;52.73;101164.69;4897214;29;45313;-59
2021/09/18 10:04:33;;;;;;;;;13.75;11.75;;;;;22.16;52.15;101163.25;4893314;29;45386;-59
2021/09/18 10:06:59;;;;;;;;;11.00;11.00;;;;;22.23;52.24;101170.50;4897096;29;45450;-59
2021/09/18 10:09:26;;;;;;;;;13.25;11.00;;;;;22.31;52.07;101167.03;4895566;29;45247;-59
2021/09/18 10:11:54;;;;;;;;;10.75;9.50;;;;;22.39;52.09;101160.91;4896557;29;45328;-59
2021/09/18 10:14:22;;;;;;;;;11.75;10.75;;;;;22.48;52.02;101162.63;4895963;29;45378;-59
2021/09/18 10:16:50;;;;;;;;;10.25;10.25;;;;;22.51;51.29;101162.31;4897187;29;45533;-59
2021/09/18 10:19:18;;;;;;;;;12.00;10.00;;;;;22.56;51.59;101157.31;4895722;29;45432;-59
2021/09/18 10:24:33;;;;;;;;;12.25;10.75;;;;;22.66;51.05;101155.34;4896216;29;45297;-59
2021/09/18 10:27:15;;;;;;;;;11.25;9.75;;;;;22.71;51.06;101150.34;4895862;29;45333;-60
2021/09/18 10:29:41;;;;;;;;;11.75;11.25;;;;;22.78;51.15;101148.72;4895683;29;45333;-60
2021/09/18 10:32:07;;;;;;;;;10.50;10.00;;;;;22.88;50.95;101147.78;4893364;29;45439;-59
2021/09/18 10:34:32;;;;;;;;;8.50;8.50;;;;;22.96;50.95;101155.88;4893658;29;45397;-59
2021/09/18 10:36:58;;;;;;;;;11.25;10.25;;;;;23.00;51.07;101151.88;4895495;29;45592;-57
2021/09/18 10:39:23;;;;;;;;;10.75;10.75;;;;;23.03;50.96;101147.00;4897520;29;45520;-57
2021/09/18 10:41:55;;;;;;;;;11.50;9.75;;;;;23.09;50.50;101141.00;4897688;29;45483;-54
2021/09/18 10:44:23;;;;;;;;;11.00;9.25;;;;;23.18;50.16;101141.84;4901771;29;45332;-53
2021/09/18 10:46:55;;;;;;;;;9.25;9.00;;;;;23.24;50.19;101138.53;4901010;28;45884;-57
2021/09/18 10:49:36;;;;;;;;;22.50;15.50;;;;;23.31;51.18;101136.03;4896840;28;45568;-44
2021/09/18 10:52:16;;;;;;;;;9.75;9.00;;;;;23.45;50.91;101129.97;4892808;29;46158;-45
2021/09/18 10:55:10;;;;;;;;;10.50;9.75;;;;;23.52;50.28;101125.63;4892745;29;45532;-46
2021/09/18 10:57:38;;;;;;;;;14.50;13.75;;;;;23.59;50.62;101121.28;4895451;29;45455;-44
2021/09/18 11:00:09;;;;;;;;;11.75;11.00;;;;;23.64;50.36;101113.59;4895482;29;45637;-44
2021/09/18 11:15:59;;;;;;;;;8.00;8.00;;;;;23.96;49.00;101103.84;4885639;28;71456;-46
2021/09/18 11:18:40;;;;;;;;;13.25;12.25;;;;;24.03;49.62;101104.00;4891886;28;45623;-45
2021/09/18 11:21:13;;;;;;;;;6.75;6.75;;;;;24.07;49.17;101098.09;4893690;29;45458;-45
2021/09/18 11:23:45;;;;;;;;;9.50;7.75;;;;;24.13;48.83;101100.13;4893886;29;46046;-46